Holden, Maine
Current Conditions -  °F | °C
As of 12:53 PM on Friday 21 Nov 2014 (Local Time) from KBGR Reporting Station
Broken Clouds Broken Clouds  
Wind Chill: 19°   Ceiling: 5000
Heat Index: 31°   Visibility: 10mi
Dew Point: 10°   Wind: 18mph
Humidity: 42%   Direction: 310°NW
Pressure: 29.97"   Gusts: 24mph
Location:  44.75°N, 68.68°W
Report Text: KBGR 211753Z 31016G21KT 10SM BKN050 M01/M12 A2997 RMK AO2 SLP151 T10061122 10000 21050 53018
Loading
Personal Weather Stations






























Interactive Weather Map New forecast layout! Learn more

10-Day Weather Forecast

Advertisements
Track Severe Weather on mobile